createdAt,value
2016-10-11T01:01:56.696Z,42.05
2016-10-11T01:02:42.324Z,41.96
2016-10-11T01:03:41.926Z,41.96
2016-10-11T01:04:41.898Z,41.77
2016-10-11T01:05:42.376Z,41.77
2016-10-11T01:06:42.400Z,41.5
2016-10-11T01:07:41.906Z,41.69
2016-10-11T01:08:42.190Z,41.5
2016-10-11T01:09:56.455Z,41.4
2016-10-11T01:10:41.747Z,41.3
2016-10-11T01:11:42.114Z,41.2
2016-10-11T01:12:42.134Z,40.82
2016-10-11T01:13:41.720Z,40.82
2016-10-11T01:14:42.791Z,40.63
2016-10-11T01:15:42.000Z,41.02
2016-10-11T01:16:41.597Z,40.63
2016-10-11T01:17:41.672Z,40.72
2016-10-11T01:18:41.553Z,41.2
2016-10-11T01:19:41.770Z,41.3
2016-10-11T01:20:41.533Z,41.96
2016-10-11T01:21:41.497Z,42.05
2016-10-11T01:22:42.201Z,42.44
2016-10-11T01:23:41.648Z,42.52
2016-10-11T01:24:41.887Z,42.8
2016-10-11T01:25:41.598Z,43.38
2016-10-11T01:26:41.531Z,43.55
2016-10-11T01:27:41.435Z,43.65
2016-10-11T01:28:41.409Z,43.94
2016-10-11T01:29:41.512Z,44.04
2016-10-11T01:30:41.979Z,44.49
2016-10-11T01:31:42.749Z,44.49
2016-10-11T01:32:41.620Z,44.69
2016-10-11T01:33:42.792Z,45.07
2016-10-11T01:34:42.039Z,44.69
2016-10-11T01:35:41.926Z,45.36
2016-10-11T01:36:41.299Z,45.44
2016-10-11T01:37:41.723Z,45.63
2016-10-11T01:38:41.115Z,45.63
2016-10-11T01:39:41.059Z,45.44
2016-10-11T01:40:41.435Z,45.44
2016-10-11T01:41:41.043Z,45.92
2016-10-11T01:42:41.406Z,46.01
2016-10-11T01:44:40.930Z,46.38
2016-10-11T01:45:41.352Z,46.38
2016-10-11T01:46:40.867Z,46.47
2016-10-11T01:47:40.857Z,47.05
2016-10-11T01:48:41.242Z,47.05
2016-10-11T01:49:40.933Z,46.95
2016-10-11T01:50:40.961Z,46.86
2016-10-11T01:51:40.885Z,46.95
2016-10-11T01:52:41.184Z,47.15
2016-10-11T01:53:40.861Z,47.22
2016-10-11T01:54:40.699Z,47.13
2016-10-11T01:55:40.812Z,47.41
2016-10-11T01:56:40.608Z,47.51
2016-10-11T01:57:41.039Z,47.31
2016-10-11T01:58:40.932Z,47.31
2016-10-11T01:59:40.999Z,46.86
2016-10-11T02:00:40.975Z,46.95
2016-10-11T02:01:40.537Z,46.28
2016-10-11T02:02:40.879Z,45.83
2016-10-11T02:03:40.449Z,45.53
2016-10-11T02:04:40.574Z,45.56
2016-10-11T02:05:40.399Z,45.36
2016-10-11T02:06:40.829Z,44.79
2016-10-11T02:07:40.751Z,44.31
2016-10-11T02:08:40.790Z,44.42
2016-10-11T02:09:41.177Z,44.32
2016-10-11T02:10:41.261Z,44.42
2016-10-11T02:11:40.595Z,44.13
2016-10-11T02:12:40.320Z,43.94
2016-10-11T02:13:40.317Z,43.55
2016-10-11T02:14:40.462Z,43.38
2016-10-11T02:15:40.628Z,43.19
2016-10-11T02:17:40.061Z,42.9
2016-10-11T02:18:40.063Z,42.71
2016-10-11T02:19:40.104Z,42.8
2016-10-11T02:20:40.160Z,42.8
2016-10-11T02:21:40.386Z,42.44
2016-10-11T02:22:41.445Z,42.63
2016-10-11T02:23:39.945Z,42.35
2016-10-11T02:24:39.927Z,42.25
2016-10-11T02:25:39.949Z,42.35
2016-10-11T02:26:39.858Z,42.25
2016-10-11T02:27:39.829Z,42.05
2016-10-11T02:28:39.831Z,41.96
2016-10-11T02:29:39.788Z,41.86
2016-10-11T02:30:40.384Z,42.05
2016-10-11T02:31:39.750Z,42.05
2016-10-11T02:32:39.756Z,41.96
2016-10-11T02:33:40.140Z,41.88
2016-10-11T02:34:39.757Z,41.69
2016-10-11T02:36:39.647Z,41.6
2016-10-11T02:37:39.969Z,41.5
2016-10-11T02:38:39.547Z,40.82
2016-10-11T02:39:39.669Z,41.2
2016-10-11T02:40:41.064Z,41.3
2016-10-11T02:41:39.492Z,41.02
2016-10-11T02:42:39.495Z,41.02
2016-10-11T02:43:39.443Z,40.92
2016-10-11T02:44:39.620Z,41.3
2016-10-11T02:45:39.489Z,41.6
2016-10-11T02:46:39.447Z,41.96
2016-10-11T02:47:39.362Z,42.15
2016-10-11T02:49:39.306Z,42.9
2016-10-11T02:51:39.249Z,43.27
2016-10-11T02:52:54.229Z,43.85
2016-10-11T02:53:39.316Z,43.85
2016-10-11T02:54:39.215Z,44.23
2016-10-11T02:55:39.340Z,44.71
2016-10-11T02:56:53.849Z,44.69
2016-10-11T02:57:39.194Z,44.69
2016-10-11T02:58:39.489Z,45.07
2016-10-11T02:59:39.533Z,44.79
2016-10-11T03:00:39.301Z,45.46
2016-10-11T03:01:53.684Z,45.65
2016-10-11T03:02:38.995Z,45.65
2016-10-11T03:03:38.931Z,45.44
2016-10-11T03:04:39.359Z,45.44
2016-10-11T03:05:38.946Z,45.83
2016-10-11T03:06:39.278Z,46.11
2016-10-11T03:07:38.889Z,46.01
2016-10-11T03:08:38.910Z,46.11
2016-10-11T03:09:38.858Z,46.31
2016-10-11T03:10:38.802Z,46.47
2016-10-11T03:11:38.724Z,47.15
2016-10-11T03:12:42.521Z,46.95
2016-10-11T03:13:38.720Z,46.86
2016-10-11T03:14:53.379Z,46.95
2016-10-11T03:15:39.057Z,47.24
2016-10-11T03:16:38.646Z,47.15
2016-10-11T03:17:38.579Z,47.34
2016-10-11T03:18:38.680Z,47.24
2016-10-11T03:19:38.544Z,47.44
2016-10-11T03:20:38.576Z,47.34
2016-10-11T03:21:38.504Z,47.41
2016-10-11T03:22:38.568Z,47.61
2016-10-11T03:23:38.458Z,47.51
2016-10-11T03:24:38.448Z,47.53
2016-10-11T03:25:38.525Z,46.86
2016-10-11T03:26:38.373Z,46.47
2016-10-11T03:27:38.332Z,46.11
2016-10-11T03:28:38.733Z,45.92
2016-10-11T03:29:39.221Z,45.36
2016-10-11T03:30:38.330Z,45.27
2016-10-11T03:31:38.238Z,45.07
2016-10-11T03:33:38.577Z,44.42
2016-10-11T03:34:38.752Z,44.71
2016-10-11T03:35:39.754Z,43.94
2016-10-11T03:36:38.206Z,44.23
2016-10-11T03:37:39.189Z,44.04
2016-10-11T03:38:38.457Z,43.75
2016-10-11T03:39:38.461Z,43.55
2016-10-11T03:40:38.549Z,43.48
2016-10-11T03:41:38.417Z,43.38
2016-10-11T03:42:37.967Z,43.38
2016-10-11T03:43:37.960Z,43.29
2016-10-11T03:44:37.949Z,43
2016-10-11T03:45:37.930Z,42.8
2016-10-11T03:46:37.924Z,42.61
2016-10-11T03:47:37.849Z,42.71
2016-10-11T03:48:38.001Z,42.83
2016-10-11T03:49:37.859Z,42.44
2016-10-11T03:50:38.145Z,42.44
2016-10-11T03:51:37.738Z,42.35
2016-10-11T03:52:38.131Z,42.25
2016-10-11T03:53:38.160Z,42.25
2016-10-11T03:54:37.749Z,42.05
2016-10-11T03:56:38.023Z,41.67
2016-10-11T03:57:37.637Z,41.88
2016-10-11T03:58:38.019Z,41.67
2016-10-11T03:59:38.036Z,41.88
2016-10-11T04:00:37.580Z,41.6
2016-10-11T04:01:37.514Z,41.4
2016-10-11T04:02:37.891Z,41.02
2016-10-11T04:03:37.433Z,41.4
2016-10-11T04:04:37.421Z,41.3
2016-10-11T04:05:37.838Z,41.2
2016-10-11T04:07:37.733Z,40.63
2016-10-11T04:08:37.320Z,40.82
2016-10-11T04:09:37.749Z,40.63
2016-10-11T04:10:37.675Z,40.53
2016-10-11T04:11:37.790Z,40.63
2016-10-11T04:12:37.352Z,40.92
2016-10-11T04:13:37.204Z,40.24
2016-10-11T04:14:37.173Z,40.82
2016-10-11T04:15:37.214Z,41.2
2016-10-11T04:16:37.663Z,41.86
2016-10-11T04:17:37.195Z,42.05
2016-10-11T04:18:37.087Z,42.35
2016-10-11T04:19:37.041Z,42.52
2016-10-11T04:20:37.476Z,42.8
2016-10-11T04:21:37.004Z,43.38
2016-10-11T04:22:36.954Z,43.37
2016-10-11T04:23:36.944Z,43.85
2016-10-11T04:24:36.944Z,43.85
2016-10-11T04:25:37.154Z,44.13
2016-10-11T04:26:36.859Z,44.42
2016-10-11T04:27:36.932Z,44.4
2016-10-11T04:28:36.830Z,44.89
2016-10-11T04:29:36.783Z,44.59
2016-10-11T04:30:37.225Z,45.27
2016-10-11T04:31:37.202Z,45.27
2016-10-11T04:32:36.736Z,45.36
2016-10-11T04:33:36.702Z,45.46
2016-10-11T04:34:36.676Z,45.63
2016-10-11T04:35:36.625Z,45.53
2016-10-11T04:36:36.619Z,45.63
2016-10-11T04:37:36.705Z,45.83
2016-10-11T04:38:37.004Z,46.01
2016-10-11T04:39:36.567Z,46.11
2016-10-11T04:40:36.525Z,46.09
2016-10-11T04:41:36.593Z,46.38
2016-10-11T04:42:36.542Z,46.57
2016-10-11T04:43:36.458Z,47.34
2016-10-11T04:44:51.442Z,47.15
2016-10-11T04:45:36.420Z,46.95
2016-10-11T04:46:36.377Z,46.77
2016-10-11T04:47:36.449Z,47.05
2016-10-11T04:48:36.370Z,47.05
2016-10-11T04:49:36.753Z,47.03
2016-10-11T04:50:36.340Z,47.41
2016-10-11T04:51:36.272Z,47.22
2016-10-11T04:52:36.537Z,47.41
2016-10-11T04:53:36.203Z,47.31
2016-10-11T04:54:36.179Z,47.41
2016-10-11T04:55:36.178Z,46.95
2016-10-11T04:56:51.206Z,46.47
2016-10-11T04:57:36.534Z,46.01
2016-10-11T04:58:36.069Z,45.44
2016-10-11T04:59:36.174Z,45.83
2016-10-11T05:00:36.434Z,45.36
2016-10-11T05:01:36.002Z,44.69
2016-10-11T05:02:36.025Z,44.79
2016-10-11T05:03:35.945Z,44.69
2016-10-11T05:04:35.962Z,44.23
2016-10-11T05:05:35.896Z,43.94
2016-10-11T05:06:36.398Z,43.75
2016-10-11T05:07:36.409Z,43.46
2016-10-11T05:08:35.977Z,43.65
2016-10-11T05:09:35.808Z,43.37
2016-10-11T05:10:35.775Z,43.27
2016-10-11T05:11:36.131Z,43.1
2016-10-11T05:12:36.146Z,43
2016-10-11T05:13:35.696Z,42.9
2016-10-11T05:14:36.034Z,42.61
2016-10-11T05:15:35.704Z,42.61
2016-10-11T05:16:35.683Z,42.42
2016-10-11T05:17:35.597Z,42.32
2016-10-11T05:18:35.593Z,42.42
2016-10-11T05:19:50.210Z,42.05
2016-10-11T05:20:35.527Z,41.96
2016-10-11T05:22:35.933Z,41.77
2016-10-11T05:23:50.103Z,41.77
2016-10-11T05:24:35.421Z,41.86
2016-10-11T05:25:35.868Z,41.57
2016-10-11T05:26:35.405Z,41.57
2016-10-11T05:27:35.348Z,41.38
2016-10-11T05:28:49.972Z,41.38
2016-10-11T05:29:35.309Z,40.99
2016-10-11T05:30:35.725Z,41.28
2016-10-11T05:31:35.296Z,41.19
2016-10-11T05:32:35.575Z,40.72
2016-10-11T05:33:35.715Z,41.2
2016-10-11T05:34:49.831Z,40.53
2016-10-11T05:35:35.175Z,40.63
2016-10-11T05:36:35.548Z,40.82
2016-10-11T05:37:35.128Z,40.24
2016-10-11T05:38:35.489Z,40.92
2016-10-11T05:39:35.155Z,40.44
2016-10-11T05:40:35.053Z,40.82
2016-10-11T05:41:35.069Z,40.72
2016-10-11T05:42:34.992Z,40.63
2016-10-11T05:43:34.935Z,40.53
2016-10-11T05:44:35.400Z,40.44
2016-10-11T05:45:49.568Z,40.63
2016-10-11T05:46:34.851Z,40.63
2016-10-11T05:47:49.558Z,41.19
2016-10-11T05:48:34.871Z,41.57
2016-10-11T05:49:45.527Z,41.86
2016-10-11T05:50:34.795Z,42.13
2016-10-11T05:51:49.457Z,42.52
2016-10-11T05:52:34.844Z,42.79
2016-10-11T05:53:35.160Z,42.97
2016-10-11T05:54:34.739Z,43.07
2016-10-11T05:55:34.701Z,43.27
2016-10-11T05:56:34.645Z,43.54
2016-10-11T05:57:35.111Z,43.82
2016-10-11T05:58:34.680Z,44.02
2016-10-11T05:59:34.686Z,44.31
2016-10-11T06:00:34.975Z,44.21
2016-10-11T06:01:35.021Z,44.19
2016-10-11T06:02:34.934Z,44.49
2016-10-11T06:03:34.526Z,44.48
2016-10-11T06:04:35.143Z,44.96
2016-10-11T06:05:34.428Z,44.76
2016-10-11T06:06:34.436Z,44.67
2016-10-11T06:07:34.793Z,44.96
2016-10-11T06:08:34.354Z,45.34
2016-10-11T06:09:34.381Z,45.42
2016-10-11T06:10:34.390Z,45.7
2016-10-11T06:12:34.292Z,45.51
2016-10-11T06:13:34.224Z,45.42
2016-10-11T06:14:34.274Z,45.9
2016-10-11T06:16:35.708Z,46.09
2016-10-11T06:17:34.243Z,45.8
2016-10-11T06:18:34.122Z,45.8
2016-10-11T06:19:34.168Z,46.06
2016-10-11T06:20:34.092Z,46.36
2016-10-11T06:21:34.005Z,46.36
2016-10-11T06:22:34.477Z,46.47
2016-10-11T06:23:33.953Z,45.99
2016-10-11T06:24:34.123Z,45.61
2016-10-11T06:25:34.353Z,45.51
2016-10-11T06:26:33.928Z,44.86
2016-10-11T06:27:33.879Z,44.48
2016-10-11T06:28:34.293Z,44.57
2016-10-11T06:29:34.443Z,44.21
2016-10-11T06:30:33.801Z,43.82
2016-10-11T06:31:33.766Z,43.54
2016-10-11T06:32:34.226Z,43.24
2016-10-11T06:33:33.685Z,43.07
2016-10-11T06:34:33.727Z,43.27
2016-10-11T06:35:48.292Z,42.79
2016-10-11T06:36:33.643Z,42.69
2016-10-11T06:37:33.664Z,42.79
2016-10-11T06:38:33.729Z,42.61
2016-10-11T06:39:33.536Z,42.42
2016-10-11T06:40:33.711Z,42.32
2016-10-11T06:41:33.919Z,42.13
2016-10-11T06:42:33.649Z,41.94
2016-10-11T06:43:33.488Z,42.13
2016-10-11T06:44:33.464Z,41.65
2016-10-11T06:45:33.422Z,41.55
2016-10-11T06:46:33.426Z,41.46
2016-10-11T06:47:33.835Z,41.55
2016-10-11T06:48:33.815Z,41.67
2016-10-11T06:49:33.326Z,41.48
2016-10-11T06:50:33.510Z,41.48
2016-10-11T06:51:33.320Z,40.99
2016-10-11T06:52:33.585Z,41.38
2016-10-11T06:53:47.868Z,40.9
2016-10-11T06:54:33.284Z,40.51
2016-10-11T06:55:33.286Z,40.8
2016-10-11T06:56:33.407Z,40.42
2016-10-11T06:57:33.161Z,41.19
2016-10-11T06:59:33.589Z,40.7
2016-10-11T07:01:33.508Z,40.72
2016-10-11T07:03:33.433Z,40.63
2016-10-11T07:04:33.440Z,40.44
2016-10-11T07:05:34.862Z,40.15
2016-10-11T07:06:33.309Z,39.95
2016-10-11T07:07:33.251Z,39.76
2016-10-11T07:08:32.815Z,39.86
2016-10-11T07:09:33.456Z,40.05
2016-10-11T07:10:32.820Z,39.95
2016-10-11T07:11:32.747Z,39.57
2016-10-11T07:12:32.762Z,39.47
2016-10-11T07:13:32.778Z,39.66
2016-10-11T07:14:33.198Z,39.76
2016-10-11T07:15:32.675Z,39.86
2016-10-11T07:16:32.632Z,39.76
2016-10-11T07:17:33.087Z,39.78
2016-10-11T07:18:32.590Z,39.57
2016-10-11T07:19:32.603Z,39.95
2016-10-11T07:20:34.206Z,41.19
2016-10-11T07:21:32.681Z,40.8
2016-10-11T07:22:47.145Z,41.67
2016-10-11T07:23:33.174Z,41.84
2016-10-11T07:24:47.094Z,42.03
2016-10-11T07:25:32.379Z,42.21
2016-10-11T07:26:32.444Z,42.4
2016-10-11T07:27:32.528Z,42.69
2016-10-11T07:28:32.495Z,42.69
2016-10-11T07:29:32.322Z,43.05
2016-10-11T07:30:33.107Z,43.24
2016-10-11T07:31:32.283Z,43.44
2016-10-11T07:32:32.801Z,43.24
2016-10-11T07:33:32.234Z,43.92
2016-10-11T07:34:32.201Z,43.92
2016-10-11T07:35:32.211Z,43.92
2016-10-11T07:36:32.207Z,44.21
2016-10-11T07:37:32.528Z,43.99
2016-10-11T07:38:32.588Z,44.57
2016-10-11T07:39:32.526Z,44.38
2016-10-11T07:41:32.160Z,44.96
2016-10-11T07:42:31.977Z,45.22
2016-10-11T07:43:32.455Z,45.22
2016-10-11T07:44:31.947Z,45.22
2016-10-11T07:45:31.888Z,45.51
2016-10-11T07:46:31.887Z,45.61
2016-10-11T07:47:31.876Z,45.51
2016-10-11T07:48:33.332Z,45.42
2016-10-11T07:49:31.920Z,45.51
2016-10-11T07:50:47.359Z,45.8
2016-10-11T07:51:32.145Z,45.7
2016-10-11T07:52:46.389Z,45.8
2016-10-11T07:53:31.719Z,46.06
2016-10-11T07:54:31.750Z,46.26
2016-10-11T07:55:31.729Z,46.06
2016-10-11T07:56:31.612Z,45.8
2016-10-11T07:57:31.588Z,45.51
2016-10-11T07:58:31.632Z,45.32
2016-10-11T07:59:31.589Z,44.86
2016-10-11T08:00:32.270Z,44.48
2016-10-11T08:01:31.850Z,44.11
2016-10-11T08:02:31.457Z,43.92
2016-10-11T08:03:31.912Z,43.92
2016-10-11T08:04:31.524Z,43.44
2016-10-11T08:05:31.505Z,43.24
2016-10-11T08:06:31.346Z,43.37
2016-10-11T08:07:31.320Z,43.17
2016-10-11T08:08:31.310Z,42.97
2016-10-11T08:09:31.359Z,42.88
2016-10-11T08:10:45.943Z,42.4
2016-10-11T08:11:31.267Z,42.4
2016-10-11T08:12:31.233Z,42.3
2016-10-11T08:13:31.185Z,42.23
2016-10-11T08:14:31.285Z,42.13
2016-10-11T08:15:45.823Z,41.94
2016-10-11T08:16:31.543Z,42.13
2016-10-11T08:17:31.556Z,41.75
2016-10-11T08:18:31.141Z,41.84
2016-10-11T08:19:31.500Z,41.65
2016-10-11T08:20:31.472Z,41.55
2016-10-11T08:21:31.370Z,41.57
2016-10-11T08:23:30.968Z,41.09
2016-10-11T08:24:30.989Z,41.38
2016-10-11T08:25:30.876Z,41.09
2016-10-11T08:26:30.897Z,40.99
2016-10-11T08:27:30.995Z,41.09
2016-10-11T08:28:30.962Z,40.8
2016-10-11T08:29:30.803Z,40.7
2016-10-11T08:30:30.789Z,40.7
2016-10-11T08:31:30.739Z,40.42
2016-10-11T08:32:30.726Z,40.63
2016-10-11T08:33:45.391Z,40.99
2016-10-11T08:34:30.638Z,40.7
2016-10-11T08:35:31.031Z,40.82
2016-10-11T08:36:30.647Z,40.44
2016-10-11T08:37:30.738Z,40.34
2016-10-11T08:38:30.668Z,40.63
2016-10-11T08:39:30.623Z,40.24
2016-10-11T08:40:30.612Z,40.24
2016-10-11T08:41:30.526Z,39.95
2016-10-11T08:42:43.374Z,39.95
2016-10-11T08:43:30.535Z,39.76
2016-10-11T08:44:30.606Z,39.95
2016-10-11T08:45:30.396Z,39.57
2016-10-11T08:46:30.370Z,39.37
2016-10-11T08:47:30.424Z,39.57
2016-10-11T08:48:30.732Z,39.76
2016-10-11T08:49:30.673Z,39.66
2016-10-11T08:50:30.277Z,39.57
2016-10-11T08:51:30.248Z,39.76
2016-10-11T08:52:30.314Z,39.76
2016-10-11T08:53:30.284Z,39.76
2016-10-11T08:54:30.205Z,39.78
2016-10-11T08:55:31.625Z,39.95
2016-10-11T08:56:30.154Z,40.63
2016-10-11T08:57:30.115Z,40.42
2016-10-11T08:58:30.509Z,40.99
2016-10-11T08:59:30.126Z,41.55
2016-10-11T09:00:31.029Z,41.65
2016-10-11T09:01:31.331Z,41.84
2016-10-11T09:02:29.984Z,42.3
2016-10-11T09:03:29.963Z,42.59
2016-10-11T09:04:29.959Z,42.79
2016-10-11T09:05:31.100Z,43.07
2016-10-11T09:06:29.914Z,43.37
2016-10-11T09:07:29.872Z,43.44
2016-10-11T09:08:30.248Z,43.44
2016-10-11T09:10:29.849Z,44.02
2016-10-11T09:11:34.855Z,44.49
2016-10-11T09:12:30.171Z,43.99
2016-10-11T09:13:29.843Z,44.49
2016-10-11T09:14:29.933Z,44.48
2016-10-11T09:15:29.715Z,45.05
2016-10-11T09:16:29.719Z,44.67
2016-10-11T09:17:29.732Z,44.76
2016-10-11T09:18:29.633Z,45.25
2016-10-11T09:19:29.984Z,45.42
2016-10-11T09:20:29.623Z,45.13
2016-10-11T09:21:29.950Z,45.7
2016-10-11T09:22:29.586Z,45.51
2016-10-11T09:23:29.870Z,45.32
2016-10-11T09:24:29.852Z,45.51
2016-10-11T09:25:29.867Z,45.9
2016-10-11T09:26:29.842Z,45.99
2016-10-11T09:27:29.663Z,46.09
2016-10-11T09:28:43.986Z,45.99
2016-10-11T09:29:29.323Z,46.06
2016-10-11T09:30:29.365Z,46.38
2016-10-11T09:31:29.316Z,46.36
2016-10-11T09:32:29.628Z,46.36
2016-10-11T09:33:29.269Z,46.36
2016-10-11T09:34:29.295Z,46.09
2016-10-11T09:35:29.626Z,45.51
2016-10-11T09:36:29.573Z,45.83
2016-10-11T09:37:29.532Z,45.34
2016-10-11T09:38:29.535Z,44.67
2016-10-11T09:39:29.815Z,44.49
2016-10-11T09:40:29.051Z,43.92
2016-10-11T09:41:29.027Z,44.21
2016-10-11T09:42:29.396Z,43.92
2016-10-11T09:43:29.067Z,43.44
2016-10-11T09:44:43.960Z,43.37
2016-10-11T09:45:29.077Z,43.17
2016-10-11T09:46:29.088Z,43.17
2016-10-11T09:47:28.896Z,42.88
2016-10-11T09:48:29.011Z,42.79
2016-10-11T09:49:28.855Z,42.79
2016-10-11T09:50:29.571Z,42.61
2016-10-11T09:52:28.793Z,42.42
2016-10-11T09:53:28.752Z,42.32
2016-10-11T09:54:28.734Z,42.13
2016-10-11T09:55:44.331Z,42.23
2016-10-11T09:56:29.570Z,41.94
2016-10-11T09:57:29.466Z,42.03
2016-10-11T09:58:29.042Z,41.67
2016-10-11T09:59:28.557Z,41.67
2016-10-11T10:00:28.651Z,41.48
2016-10-11T10:01:28.676Z,41.38
2016-10-11T10:02:28.529Z,41.48
2016-10-11T10:03:28.519Z,41.28
2016-10-11T10:04:28.466Z,41.48
2016-10-11T10:05:28.426Z,41.19
2016-10-11T10:06:28.375Z,41.09
2016-10-11T10:07:28.829Z,40.8
2016-10-11T10:08:28.363Z,40.7
2016-10-11T10:09:28.367Z,40.8
2016-10-11T10:10:28.302Z,40.82
2016-10-11T10:11:28.310Z,40.63
2016-10-11T10:12:28.226Z,40.63
2016-10-11T10:13:28.216Z,40.53
2016-10-11T10:14:28.445Z,41.2
2016-10-11T10:15:29.065Z,40.63
2016-10-11T10:16:28.481Z,40.82
2016-10-11T10:17:28.626Z,40.63
2016-10-11T10:18:28.075Z,40.34
2016-10-11T10:19:28.063Z,40.63
2016-10-11T10:20:28.100Z,40.44
2016-10-11T10:21:28.023Z,40.63
2016-10-11T10:22:28.011Z,40.05
2016-10-11T10:23:27.985Z,39.95
2016-10-11T10:24:27.985Z,39.76
2016-10-11T10:25:28.370Z,39.95
2016-10-11T10:27:27.865Z,40.63
2016-10-11T10:28:42.495Z,41.02
2016-10-11T10:29:27.838Z,41.38
2016-10-11T10:30:42.529Z,41.96
2016-10-11T10:31:27.820Z,42.23
2016-10-11T10:32:27.828Z,42.71
2016-10-11T10:33:27.713Z,42.59
2016-10-11T10:34:27.696Z,42.88
2016-10-11T10:35:27.682Z,43.17
2016-10-11T10:36:28.157Z,43.65
2016-10-11T10:37:28.004Z,43.94
2016-10-11T10:38:28.073Z,43.92
2016-10-11T10:39:28.062Z,43.82
2016-10-11T10:40:28.539Z,44.21
2016-10-11T10:41:27.662Z,44.69
2016-10-11T10:42:27.562Z,44.49
2016-10-11T10:43:28.162Z,44.89
2016-10-11T10:44:27.471Z,44.48
2016-10-11T10:45:27.513Z,44.67
2016-10-11T10:46:27.606Z,45.34
2016-10-11T10:47:27.415Z,45.25
2016-10-11T10:49:27.332Z,45.73
2016-10-11T10:50:27.694Z,45.34
2016-10-11T10:51:27.794Z,45.44
2016-10-11T10:52:27.683Z,45.9
2016-10-11T10:53:27.294Z,45.8
2016-10-11T10:54:27.655Z,45.9
2016-10-11T10:56:42.146Z,46.47
2016-10-11T10:57:27.561Z,46.57
2016-10-11T10:58:27.106Z,47.15
2016-10-11T10:59:27.042Z,47.05
2016-10-11T11:00:27.325Z,46.95
2016-10-11T11:02:36.329Z,47.03
2016-10-11T11:03:35.905Z,46.86
2016-10-11T11:04:35.889Z,47.03
2016-10-11T11:05:35.820Z,46.95
2016-10-11T11:06:35.868Z,46.86
2016-10-11T11:07:36.164Z,46.19
2016-10-11T11:08:35.781Z,45.53
2016-10-11T11:09:36.228Z,45.63
2016-10-11T11:10:36.195Z,45.46
2016-10-11T11:11:35.786Z,44.69
2016-10-11T11:12:35.665Z,44.79
2016-10-11T11:13:36.073Z,44.49
2016-10-11T11:14:35.876Z,44.21
2016-10-11T11:15:35.595Z,44.62
2016-10-11T11:16:36.027Z,44.13
2016-10-11T11:17:35.587Z,43.75
2016-10-11T11:18:35.728Z,43.46
2016-10-11T11:19:35.902Z,43.37
2016-10-11T11:20:36.214Z,43.38
2016-10-11T11:21:35.915Z,43
2016-10-11T11:22:35.464Z,42.9
2016-10-11T11:23:35.830Z,42.9
2016-10-11T11:24:35.440Z,42.9
2016-10-11T11:25:35.332Z,42.9
2016-10-11T11:26:35.799Z,42.71
2016-10-11T11:27:35.368Z,42.52
2016-10-11T11:28:35.627Z,42.32
2016-10-11T11:29:36.198Z,42.25
2016-10-11T11:30:36.357Z,42.15
2016-10-11T11:31:36.114Z,42.15
2016-10-11T11:32:35.618Z,41.86
2016-10-11T11:33:35.644Z,42.15
2016-10-11T11:34:35.431Z,41.67
2016-10-11T11:35:35.646Z,42.05
2016-10-11T11:37:35.644Z,41.77
2016-10-11T11:38:35.463Z,41.48
2016-10-11T11:39:35.463Z,41.48
2016-10-11T11:40:35.787Z,41.5
2016-10-11T11:41:35.069Z,41.78
2016-10-11T11:42:35.331Z,41.11
2016-10-11T11:43:35.397Z,41.02
2016-10-11T11:44:35.006Z,41.02
2016-10-11T11:45:34.994Z,41.2
2016-10-11T11:46:34.822Z,41.2
2016-10-11T11:47:34.801Z,40.63
2016-10-11T11:48:34.853Z,40.92
2016-10-11T11:49:34.820Z,40.72
2016-10-11T11:50:34.713Z,40.82
2016-10-11T11:51:34.817Z,40.63
2016-10-11T11:52:34.729Z,40.53
2016-10-11T11:53:34.703Z,40.82
2016-10-11T11:54:34.639Z,40.94
2016-10-11T11:55:34.620Z,40.75
2016-10-11T11:56:34.600Z,41.02
2016-10-11T11:57:34.577Z,40.63
2016-10-11T11:58:34.602Z,40.82
2016-10-11T11:59:34.605Z,41.96
2016-10-11T12:01:34.977Z,42.35
2016-10-11T12:02:34.437Z,42.9
2016-10-11T12:03:34.439Z,43.1
2016-10-11T12:04:34.827Z,43.55
2016-10-11T12:05:34.405Z,43.65
2016-10-11T12:06:34.355Z,43.75
2016-10-11T12:07:34.317Z,43.75
2016-10-11T12:08:34.577Z,44.23
2016-10-11T12:09:34.301Z,44.49
2016-10-11T12:10:34.611Z,44.49
2016-10-11T12:11:34.284Z,44.4
2016-10-11T12:12:34.651Z,44.98
2016-10-11T12:13:34.737Z,45.36
2016-10-11T12:14:34.251Z,45.27
2016-10-11T12:15:34.187Z,45.46
2016-10-11T12:16:34.680Z,45.63
2016-10-11T12:17:34.070Z,45.44
2016-10-11T12:18:48.701Z,45.53
2016-10-11T12:19:34.050Z,45.92
2016-10-11T12:22:12.159Z,45.92
2016-10-11T12:22:57.139Z,46.11
2016-10-11T12:26:20.195Z,46.95
2016-10-11T12:27:20.629Z,47.05
2016-10-11T12:28:20.550Z,47.05
2016-10-11T12:29:20.172Z,47.24
2016-10-11T12:30:20.099Z,47.05
2016-10-11T12:31:20.038Z,47.44
2016-10-11T12:32:20.470Z,47.41
2016-10-11T12:33:20.014Z,47.41
2016-10-11T12:35:21.140Z,47.41
2016-10-11T12:36:20.681Z,47.41
2016-10-11T12:37:20.399Z,47.22
2016-10-11T12:39:58.013Z,46.4
2016-10-11T12:40:43.232Z,45.92
2016-10-11T12:41:43.368Z,45.73
2016-10-11T12:42:42.941Z,45.36
2016-10-11T12:43:42.917Z,45.56
2016-10-11T12:44:57.557Z,45.27
2016-10-11T12:45:42.996Z,44.79
2016-10-11T12:46:42.858Z,44.49
2016-10-11T12:47:42.848Z,44.62
2016-10-11T12:48:43.281Z,44.62
2016-10-11T12:49:42.779Z,44.23
2016-10-11T12:50:42.883Z,44.23
2016-10-11T12:51:42.718Z,44.32
2016-10-11T12:52:43.095Z,43.94
2016-10-11T12:53:42.739Z,43.65
2016-10-11T12:54:47.695Z,43.58
2016-10-11T12:55:42.684Z,43.48
2016-10-11T12:57:43.008Z,43.19
2016-10-11T12:58:42.538Z,42.8
2016-10-11T12:59:42.528Z,42.73
2016-10-11T13:00:44.042Z,42.9
2016-10-11T13:01:57.156Z,42.8
2016-10-11T13:02:48.056Z,42.54
2016-10-11T13:03:46.389Z,42.73
2016-10-11T13:08:29.147Z,41.96
2016-10-11T13:09:28.730Z,41.86
2016-10-11T13:10:28.988Z,41.77
2016-10-11T13:11:29.162Z,41.86
2016-10-11T13:12:28.850Z,41.98
2016-10-11T13:13:28.642Z,41.88
2016-10-11T13:14:28.389Z,41.98
2016-10-11T13:15:28.465Z,41.5
2016-10-11T13:18:51.651Z,41.6
2016-10-11T13:20:52.578Z,41.02
2016-10-11T13:21:51.501Z,41.11
2016-10-11T13:22:51.486Z,41.11
2016-10-11T13:23:51.801Z,41.2
2016-10-11T13:24:51.715Z,41.2
2016-10-11T13:25:51.317Z,40.84
2016-10-11T13:26:51.717Z,41.33
2016-10-11T13:27:51.272Z,41.11
2016-10-11T13:28:51.211Z,41.78
2016-10-11T13:29:51.574Z,41.98
2016-10-11T13:30:51.165Z,42.54
2016-10-11T13:34:37.852Z,43.77
2016-10-11T13:35:37.520Z,44.13
2016-10-11T13:36:37.550Z,44.23
2016-10-11T13:37:37.791Z,44.62
2016-10-11T13:38:37.424Z,44.71
2016-10-11T15:15:13.711Z,84.06
2016-10-11T15:16:12.895Z,84.25
2016-10-11T15:17:13.431Z,84.44
2016-10-11T15:18:12.802Z,83.39
2016-10-11T15:19:12.907Z,83.01
2016-10-11T15:20:13.672Z,81.9
2016-10-11T15:21:12.730Z,80.66
2016-10-11T15:22:12.691Z,78.99
2016-10-11T15:23:12.712Z,77.84
2016-10-11T15:24:12.742Z,76.54
2016-10-11T15:27:35.732Z,72.79
2016-10-11T15:28:37.200Z,71.45
2016-10-11T15:29:35.720Z,70.01
2016-10-11T15:30:35.728Z,69.95
2016-10-11T15:31:36.124Z,69.48
2016-10-11T15:32:35.633Z,68.62
2016-10-11T15:33:35.539Z,68.17
2016-10-11T15:34:35.526Z,67.31
2016-10-11T15:35:35.554Z,66.93
2016-10-11T15:36:36.407Z,66.54
2016-10-11T15:37:35.492Z,66.38
2016-10-11T15:38:35.456Z,66.09
2016-10-11T15:39:35.735Z,65.91
2016-10-11T15:40:50.028Z,65.42
2016-10-11T15:41:35.354Z,65.23
2016-10-11T15:42:35.717Z,65.33
2016-10-11T15:43:35.222Z,65.42
2016-10-11T15:44:35.645Z,65.36
2016-10-11T15:45:35.207Z,65.55
2016-10-11T15:48:13.037Z,65.46
2016-10-11T15:48:58.255Z,65.36
2016-10-11T15:49:58.245Z,65.26
2016-10-11T15:51:12.926Z,64.69
2016-10-11T15:51:58.205Z,65.26
2016-10-11T15:52:58.112Z,65.08
2016-10-11T15:57:44.325Z,64.98
2016-10-11T15:58:44.397Z,65.26
2016-10-11T15:59:44.810Z,65.36
2016-10-11T16:00:51.500Z,64.69
2016-10-11T16:01:59.306Z,64.98
2016-10-11T16:02:44.363Z,65.26
2016-10-11T16:03:44.630Z,64.89
2016-10-11T16:04:44.641Z,64.5
2016-10-11T16:05:58.869Z,64.31
2016-10-11T16:06:44.454Z,65.01
2016-10-11T16:07:44.049Z,64.34
2016-10-11T16:08:44.498Z,65.01
2016-10-11T16:09:44.019Z,64.34
2016-10-11T16:10:44.090Z,64.25
2016-10-11T16:11:44.351Z,64.72
2016-10-11T16:12:44.383Z,64.53
2016-10-11T16:13:44.293Z,64.43
2016-10-11T16:14:43.875Z,65.01
2016-10-11T16:15:44.646Z,64.92
2016-10-11T16:16:43.975Z,65.39
2016-10-11T16:17:43.754Z,65.2
2016-10-11T16:18:45.128Z,64.92
2016-10-11T16:19:43.778Z,65.01
2016-10-11T16:20:43.712Z,65.2